sensor_id;sensor_type;location;lat;lon;timestamp;P1;durP1;ratioP1;P2;durP2;ratioP2
13349;SDS011;6744;53.190;6.576;2023-11-21T00:01:14;7.20;;;2.77;;
13349;SDS011;6744;53.190;6.576;2023-11-21T00:03:40;9.23;;;3.30;;
13349;SDS011;6744;53.190;6.576;2023-11-21T00:06:05;9.00;;;3.10;;
13349;SDS011;6744;53.190;6.576;2023-11-21T00:08:33;5.97;;;2.90;;
13349;SDS011;6744;53.190;6.576;2023-11-21T00:10:59;8.00;;;3.07;;
13349;SDS011;6744;53.190;6.576;2023-11-21T00:13:25;7.60;;;3.47;;
13349;SDS011;6744;53.190;6.576;2023-11-21T00:15:51;7.43;;;2.80;;
13349;SDS011;6744;53.190;6.576;2023-11-21T00:18:16;6.20;;;3.20;;
13349;SDS011;6744;53.190;6.576;2023-11-21T00:20:41;5.87;;;3.60;;
13349;SDS011;6744;53.190;6.576;2023-11-21T00:23:07;8.90;;;3.70;;
13349;SDS011;6744;53.190;6.576;2023-11-21T00:25:32;15.57;;;4.70;;
13349;SDS011;6744;53.190;6.576;2023-11-21T00:27:58;10.13;;;4.40;;
13349;SDS011;6744;53.190;6.576;2023-11-21T00:30:23;7.53;;;3.83;;
13349;SDS011;6744;53.190;6.576;2023-11-21T00:32:48;8.40;;;4.30;;
13349;SDS011;6744;53.190;6.576;2023-11-21T00:35:14;9.20;;;3.93;;
13349;SDS011;6744;53.190;6.576;2023-11-21T00:37:39;7.93;;;4.13;;
13349;SDS011;6744;53.190;6.576;2023-11-21T00:40:05;8.93;;;4.57;;
13349;SDS011;6744;53.190;6.576;2023-11-21T00:42:31;8.97;;;4.13;;
13349;SDS011;6744;53.190;6.576;2023-11-21T00:44:58;6.47;;;3.80;;
13349;SDS011;6744;53.190;6.576;2023-11-21T00:47:24;9.37;;;4.87;;
13349;SDS011;6744;53.190;6.576;2023-11-21T00:49:49;9.53;;;4.50;;
13349;SDS011;6744;53.190;6.576;2023-11-21T00:52:15;10.47;;;4.43;;
13349;SDS011;6744;53.190;6.576;2023-11-21T00:54:41;10.47;;;5.13;;
13349;SDS011;6744;53.190;6.576;2023-11-21T00:57:06;10.20;;;5.17;;
13349;SDS011;6744;53.190;6.576;2023-11-21T00:59:33;9.97;;;5.10;;
13349;SDS011;6744;53.190;6.576;2023-11-21T01:01:59;11.87;;;5.60;;
13349;SDS011;6744;53.190;6.576;2023-11-21T01:04:26;11.33;;;5.13;;
13349;SDS011;6744;53.190;6.576;2023-11-21T01:06:51;9.83;;;5.30;;
13349;SDS011;6744;53.190;6.576;2023-11-21T01:09:17;10.37;;;5.43;;
13349;SDS011;6744;53.190;6.576;2023-11-21T01:11:43;12.20;;;5.80;;
13349;SDS011;6744;53.190;6.576;2023-11-21T01:14:09;9.50;;;5.80;;
13349;SDS011;6744;53.190;6.576;2023-11-21T01:16:35;11.67;;;6.17;;
13349;SDS011;6744;53.190;6.576;2023-11-21T01:19:01;10.60;;;5.80;;
13349;SDS011;6744;53.190;6.576;2023-11-21T01:21:26;9.20;;;5.23;;
13349;SDS011;6744;53.190;6.576;2023-11-21T01:23:53;9.53;;;5.10;;
13349;SDS011;6744;53.190;6.576;2023-11-21T01:26:20;11.13;;;5.90;;
13349;SDS011;6744;53.190;6.576;2023-11-21T01:28:45;7.57;;;5.13;;
13349;SDS011;6744;53.190;6.576;2023-11-21T01:31:10;12.30;;;6.50;;
13349;SDS011;6744;53.190;6.576;2023-11-21T01:33:36;10.57;;;5.03;;
13349;SDS011;6744;53.190;6.576;2023-11-21T01:36:01;10.07;;;5.50;;
13349;SDS011;6744;53.190;6.576;2023-11-21T01:38:27;11.23;;;5.90;;
13349;SDS011;6744;53.190;6.576;2023-11-21T01:40:52;10.93;;;5.70;;
13349;SDS011;6744;53.190;6.576;2023-11-21T01:43:17;9.53;;;6.30;;
13349;SDS011;6744;53.190;6.576;2023-11-21T01:45:43;9.83;;;4.77;;
13349;SDS011;6744;53.190;6.576;2023-11-21T01:48:10;9.37;;;5.53;;
13349;SDS011;6744;53.190;6.576;2023-11-21T01:50:35;13.90;;;6.03;;
13349;SDS011;6744;53.190;6.576;2023-11-21T01:53:00;14.07;;;6.70;;
13349;SDS011;6744;53.190;6.576;2023-11-21T01:55:26;9.33;;;5.43;;
13349;SDS011;6744;53.190;6.576;2023-11-21T01:57:52;11.80;;;4.90;;
13349;SDS011;6744;53.190;6.576;2023-11-21T02:00:18;14.07;;;6.67;;
13349;SDS011;6744;53.190;6.576;2023-11-21T02:02:45;14.47;;;6.30;;
13349;SDS011;6744;53.190;6.576;2023-11-21T02:05:11;8.67;;;5.10;;
13349;SDS011;6744;53.190;6.576;2023-11-21T02:07:40;7.57;;;4.90;;
13349;SDS011;6744;53.190;6.576;2023-11-21T02:10:09;9.50;;;6.03;;
13349;SDS011;6744;53.190;6.576;2023-11-21T02:12:34;9.07;;;4.77;;
13349;SDS011;6744;53.190;6.576;2023-11-21T02:15:01;10.67;;;5.33;;
13349;SDS011;6744;53.190;6.576;2023-11-21T02:17:30;12.70;;;6.00;;
13349;SDS011;6744;53.190;6.576;2023-11-21T02:19:55;10.80;;;5.73;;
13349;SDS011;6744;53.190;6.576;2023-11-21T02:22:21;14.17;;;6.20;;
13349;SDS011;6744;53.190;6.576;2023-11-21T02:24:47;11.97;;;6.33;;
13349;SDS011;6744;53.190;6.576;2023-11-21T02:27:12;9.07;;;5.50;;
13349;SDS011;6744;53.190;6.576;2023-11-21T02:29:38;8.47;;;5.00;;
13349;SDS011;6744;53.190;6.576;2023-11-21T02:32:03;7.50;;;5.40;;
13349;SDS011;6744;53.190;6.576;2023-11-21T02:34:29;7.73;;;4.83;;
13349;SDS011;6744;53.190;6.576;2023-11-21T02:36:54;10.87;;;5.40;;
13349;SDS011;6744;53.190;6.576;2023-11-21T02:39:20;10.27;;;5.30;;
13349;SDS011;6744;53.190;6.576;2023-11-21T02:41:47;8.13;;;5.20;;
13349;SDS011;6744;53.190;6.576;2023-11-21T02:44:12;8.47;;;5.60;;
13349;SDS011;6744;53.190;6.576;2023-11-21T02:46:38;12.73;;;5.87;;
13349;SDS011;6744;53.190;6.576;2023-11-21T02:49:05;8.83;;;5.50;;
13349;SDS011;6744;53.190;6.576;2023-11-21T02:51:35;8.37;;;5.43;;
13349;SDS011;6744;53.190;6.576;2023-11-21T02:54:01;13.00;;;7.13;;
13349;SDS011;6744;53.190;6.576;2023-11-21T02:56:28;10.13;;;5.83;;
13349;SDS011;6744;53.190;6.576;2023-11-21T02:58:57;12.73;;;6.77;;
13349;SDS011;6744;53.190;6.576;2023-11-21T03:01:22;11.33;;;5.67;;
13349;SDS011;6744;53.190;6.576;2023-11-21T03:03:49;10.83;;;6.53;;
13349;SDS011;6744;53.190;6.576;2023-11-21T03:06:16;10.00;;;6.00;;
13349;SDS011;6744;53.190;6.576;2023-11-21T03:08:42;10.60;;;5.60;;
13349;SDS011;6744;53.190;6.576;2023-11-21T03:11:08;9.60;;;5.87;;
13349;SDS011;6744;53.190;6.576;2023-11-21T03:13:33;12.73;;;6.57;;
13349;SDS011;6744;53.190;6.576;2023-11-21T03:15:58;12.30;;;6.47;;
13349;SDS011;6744;53.190;6.576;2023-11-21T03:18:24;9.20;;;6.00;;
13349;SDS011;6744;53.190;6.576;2023-11-21T03:20:49;17.60;;;8.40;;
13349;SDS011;6744;53.190;6.576;2023-11-21T03:23:15;16.60;;;7.70;;
13349;SDS011;6744;53.190;6.576;2023-11-21T03:25:41;16.40;;;7.83;;
13349;SDS011;6744;53.190;6.576;2023-11-21T03:28:06;11.63;;;6.47;;
13349;SDS011;6744;53.190;6.576;2023-11-21T03:30:33;15.07;;;7.33;;
13349;SDS011;6744;53.190;6.576;2023-11-21T03:32:58;10.83;;;6.80;;
13349;SDS011;6744;53.190;6.576;2023-11-21T03:35:24;11.90;;;6.90;;
13349;SDS011;6744;53.190;6.576;2023-11-21T03:37:49;10.97;;;6.00;;
13349;SDS011;6744;53.190;6.576;2023-11-21T03:40:15;11.57;;;7.00;;
13349;SDS011;6744;53.190;6.576;2023-11-21T03:42:40;13.73;;;7.20;;
13349;SDS011;6744;53.190;6.576;2023-11-21T03:45:06;12.33;;;7.27;;
13349;SDS011;6744;53.190;6.576;2023-11-21T03:47:33;14.30;;;7.27;;
13349;SDS011;6744;53.190;6.576;2023-11-21T03:49:58;18.57;;;8.70;;
13349;SDS011;6744;53.190;6.576;2023-11-21T03:52:24;14.13;;;7.10;;
13349;SDS011;6744;53.190;6.576;2023-11-21T03:54:50;11.13;;;6.83;;
13349;SDS011;6744;53.190;6.576;2023-11-21T03:57:15;12.83;;;6.53;;
13349;SDS011;6744;53.190;6.576;2023-11-21T03:59:41;11.47;;;6.40;;
13349;SDS011;6744;53.190;6.576;2023-11-21T04:02:07;10.00;;;6.17;;
13349;SDS011;6744;53.190;6.576;2023-11-21T04:04:33;14.33;;;7.77;;
13349;SDS011;6744;53.190;6.576;2023-11-21T04:06:58;14.10;;;8.07;;
13349;SDS011;6744;53.190;6.576;2023-11-21T04:09:24;12.33;;;7.80;;
13349;SDS011;6744;53.190;6.576;2023-11-21T04:11:50;21.00;;;9.23;;
13349;SDS011;6744;53.190;6.576;2023-11-21T04:14:18;11.83;;;7.20;;
13349;SDS011;6744;53.190;6.576;2023-11-21T04:16:44;11.33;;;7.50;;
13349;SDS011;6744;53.190;6.576;2023-11-21T04:19:09;15.13;;;7.73;;
13349;SDS011;6744;53.190;6.576;2023-11-21T04:21:35;12.17;;;7.50;;
13349;SDS011;6744;53.190;6.576;2023-11-21T04:24:04;19.43;;;8.93;;
13349;SDS011;6744;53.190;6.576;2023-11-21T04:26:29;16.90;;;9.43;;
13349;SDS011;6744;53.190;6.576;2023-11-21T04:28:55;14.87;;;8.43;;
13349;SDS011;6744;53.190;6.576;2023-11-21T04:31:20;12.70;;;7.67;;
13349;SDS011;6744;53.190;6.576;2023-11-21T04:33:46;13.87;;;8.10;;
13349;SDS011;6744;53.190;6.576;2023-11-21T04:36:11;13.40;;;7.63;;
13349;SDS011;6744;53.190;6.576;2023-11-21T04:38:36;11.57;;;7.30;;
13349;SDS011;6744;53.190;6.576;2023-11-21T04:41:01;15.07;;;8.17;;
13349;SDS011;6744;53.190;6.576;2023-11-21T04:43:27;16.73;;;9.07;;
13349;SDS011;6744;53.190;6.576;2023-11-21T04:45:52;16.67;;;8.73;;
13349;SDS011;6744;53.190;6.576;2023-11-21T04:48:19;16.03;;;9.20;;
13349;SDS011;6744;53.190;6.576;2023-11-21T04:50:44;15.93;;;8.87;;
13349;SDS011;6744;53.190;6.576;2023-11-21T04:53:10;17.10;;;9.20;;
13349;SDS011;6744;53.190;6.576;2023-11-21T04:55:38;18.73;;;9.27;;
13349;SDS011;6744;53.190;6.576;2023-11-21T04:58:04;16.30;;;9.03;;
13349;SDS011;6744;53.190;6.576;2023-11-21T05:00:29;16.20;;;9.67;;
13349;SDS011;6744;53.190;6.576;2023-11-21T05:02:54;15.27;;;9.10;;
13349;SDS011;6744;53.190;6.576;2023-11-21T05:05:20;17.93;;;9.40;;
13349;SDS011;6744;53.190;6.576;2023-11-21T05:07:45;15.50;;;8.67;;
13349;SDS011;6744;53.190;6.576;2023-11-21T05:10:11;21.23;;;9.83;;
13349;SDS011;6744;53.190;6.576;2023-11-21T05:12:37;15.77;;;9.30;;
13349;SDS011;6744;53.190;6.576;2023-11-21T05:15:05;14.43;;;7.63;;
13349;SDS011;6744;53.190;6.576;2023-11-21T05:17:38;16.70;;;8.07;;
13349;SDS011;6744;53.190;6.576;2023-11-21T05:20:15;16.93;;;8.10;;
13349;SDS011;6744;53.190;6.576;2023-11-21T05:22:46;17.57;;;8.63;;
13349;SDS011;6744;53.190;6.576;2023-11-21T05:25:13;18.30;;;9.93;;
13349;SDS011;6744;53.190;6.576;2023-11-21T05:27:38;20.90;;;10.37;;
13349;SDS011;6744;53.190;6.576;2023-11-21T05:30:04;24.70;;;10.57;;
13349;SDS011;6744;53.190;6.576;2023-11-21T05:32:31;20.07;;;11.23;;
13349;SDS011;6744;53.190;6.576;2023-11-21T05:34:57;18.27;;;10.47;;
13349;SDS011;6744;53.190;6.576;2023-11-21T05:37:22;16.30;;;8.97;;
13349;SDS011;6744;53.190;6.576;2023-11-21T05:39:48;16.17;;;8.73;;
13349;SDS011;6744;53.190;6.576;2023-11-21T05:42:14;14.47;;;8.37;;
13349;SDS011;6744;53.190;6.576;2023-11-21T05:44:41;11.17;;;7.43;;
13349;SDS011;6744;53.190;6.576;2023-11-21T05:47:08;13.03;;;8.20;;
13349;SDS011;6744;53.190;6.576;2023-11-21T05:49:33;15.17;;;8.10;;
13349;SDS011;6744;53.190;6.576;2023-11-21T05:51:59;11.77;;;7.90;;
13349;SDS011;6744;53.190;6.576;2023-11-21T05:54:24;14.17;;;8.43;;
13349;SDS011;6744;53.190;6.576;2023-11-21T05:56:50;11.37;;;7.30;;
13349;SDS011;6744;53.190;6.576;2023-11-21T05:59:15;13.17;;;8.37;;
13349;SDS011;6744;53.190;6.576;2023-11-21T06:01:41;18.03;;;9.40;;
13349;SDS011;6744;53.190;6.576;2023-11-21T06:04:06;10.03;;;7.07;;
13349;SDS011;6744;53.190;6.576;2023-11-21T06:06:34;9.83;;;7.53;;
13349;SDS011;6744;53.190;6.576;2023-11-21T06:09:00;11.63;;;8.17;;
13349;SDS011;6744;53.190;6.576;2023-11-21T06:11:25;12.17;;;7.47;;
13349;SDS011;6744;53.190;6.576;2023-11-21T06:13:50;11.53;;;7.63;;
13349;SDS011;6744;53.190;6.576;2023-11-21T06:16:18;9.80;;;7.27;;
13349;SDS011;6744;53.190;6.576;2023-11-21T06:18:44;11.23;;;7.50;;
13349;SDS011;6744;53.190;6.576;2023-11-21T06:21:10;13.23;;;8.70;;
13349;SDS011;6744;53.190;6.576;2023-11-21T06:23:36;10.43;;;8.20;;
13349;SDS011;6744;53.190;6.576;2023-11-21T06:26:01;17.20;;;11.47;;
13349;SDS011;6744;53.190;6.576;2023-11-21T06:28:26;16.87;;;11.23;;
13349;SDS011;6744;53.190;6.576;2023-11-21T06:30:52;18.17;;;11.73;;
13349;SDS011;6744;53.190;6.576;2023-11-21T06:33:18;22.70;;;14.47;;
13349;SDS011;6744;53.190;6.576;2023-11-21T06:35:44;20.17;;;13.13;;
13349;SDS011;6744;53.190;6.576;2023-11-21T06:38:09;16.80;;;12.00;;
13349;SDS011;6744;53.190;6.576;2023-11-21T06:40:35;17.97;;;11.87;;
13349;SDS011;6744;53.190;6.576;2023-11-21T06:43:00;16.87;;;12.33;;
13349;SDS011;6744;53.190;6.576;2023-11-21T06:45:26;19.50;;;12.23;;
13349;SDS011;6744;53.190;6.576;2023-11-21T06:47:51;19.97;;;12.93;;
13349;SDS011;6744;53.190;6.576;2023-11-21T06:50:17;16.97;;;12.20;;
13349;SDS011;6744;53.190;6.576;2023-11-21T06:52:42;18.47;;;12.13;;
13349;SDS011;6744;53.190;6.576;2023-11-21T06:55:08;20.30;;;12.13;;
13349;SDS011;6744;53.190;6.576;2023-11-21T06:57:34;16.73;;;11.57;;
13349;SDS011;6744;53.190;6.576;2023-11-21T07:00:00;14.87;;;10.73;;
13349;SDS011;6744;53.190;6.576;2023-11-21T07:02:25;13.20;;;9.27;;
13349;SDS011;6744;53.190;6.576;2023-11-21T07:04:51;13.50;;;9.30;;
13349;SDS011;6744;53.190;6.576;2023-11-21T07:07:16;14.20;;;10.40;;
13349;SDS011;6744;53.190;6.576;2023-11-21T07:09:41;15.87;;;10.50;;
13349;SDS011;6744;53.190;6.576;2023-11-21T07:12:07;11.63;;;9.27;;
13349;SDS011;6744;53.190;6.576;2023-11-21T07:14:35;12.67;;;9.70;;
13349;SDS011;6744;53.190;6.576;2023-11-21T07:17:00;13.20;;;9.90;;
13349;SDS011;6744;53.190;6.576;2023-11-21T07:19:26;14.63;;;10.53;;
13349;SDS011;6744;53.190;6.576;2023-11-21T07:21:51;17.53;;;11.83;;
13349;SDS011;6744;53.190;6.576;2023-11-21T07:24:17;25.07;;;13.33;;
13349;SDS011;6744;53.190;6.576;2023-11-21T07:26:42;16.47;;;10.77;;
13349;SDS011;6744;53.190;6.576;2023-11-21T07:29:08;19.63;;;13.00;;
13349;SDS011;6744;53.190;6.576;2023-11-21T07:31:33;18.70;;;12.83;;
13349;SDS011;6744;53.190;6.576;2023-11-21T07:34:01;18.07;;;13.10;;
13349;SDS011;6744;53.190;6.576;2023-11-21T07:36:27;23.30;;;14.57;;
13349;SDS011;6744;53.190;6.576;2023-11-21T07:38:52;18.53;;;13.50;;
13349;SDS011;6744;53.190;6.576;2023-11-21T07:41:18;18.60;;;13.00;;
13349;SDS011;6744;53.190;6.576;2023-11-21T07:43:46;17.60;;;13.17;;
13349;SDS011;6744;53.190;6.576;2023-11-21T07:46:12;24.07;;;14.47;;
13349;SDS011;6744;53.190;6.576;2023-11-21T07:48:38;19.87;;;14.27;;
13349;SDS011;6744;53.190;6.576;2023-11-21T07:51:04;18.13;;;13.40;;
13349;SDS011;6744;53.190;6.576;2023-11-21T07:53:29;19.13;;;14.20;;
13349;SDS011;6744;53.190;6.576;2023-11-21T07:55:58;18.63;;;14.03;;
13349;SDS011;6744;53.190;6.576;2023-11-21T07:58:24;18.20;;;13.77;;
13349;SDS011;6744;53.190;6.576;2023-11-21T08:00:49;21.33;;;15.03;;
13349;SDS011;6744;53.190;6.576;2023-11-21T08:03:15;17.27;;;13.27;;
13349;SDS011;6744;53.190;6.576;2023-11-21T08:05:41;19.93;;;14.20;;
13349;SDS011;6744;53.190;6.576;2023-11-21T08:08:07;21.47;;;15.13;;
13349;SDS011;6744;53.190;6.576;2023-11-21T08:10:32;17.53;;;14.27;;
13349;SDS011;6744;53.190;6.576;2023-11-21T08:12:58;22.77;;;16.50;;
13349;SDS011;6744;53.190;6.576;2023-11-21T08:15:23;20.83;;;15.07;;
13349;SDS011;6744;53.190;6.576;2023-11-21T08:17:49;19.63;;;14.30;;
13349;SDS011;6744;53.190;6.576;2023-11-21T08:20:14;22.57;;;15.67;;
13349;SDS011;6744;53.190;6.576;2023-11-21T08:22:43;22.03;;;15.70;;
13349;SDS011;6744;53.190;6.576;2023-11-21T08:25:09;20.03;;;15.27;;
13349;SDS011;6744;53.190;6.576;2023-11-21T08:27:34;22.53;;;16.73;;
13349;SDS011;6744;53.190;6.576;2023-11-21T08:30:00;23.70;;;16.93;;
13349;SDS011;6744;53.190;6.576;2023-11-21T08:32:25;20.83;;;15.17;;
13349;SDS011;6744;53.190;6.576;2023-11-21T08:34:51;23.57;;;16.30;;
13349;SDS011;6744;53.190;6.576;2023-11-21T08:37:16;21.03;;;15.50;;
13349;SDS011;6744;53.190;6.576;2023-11-21T08:39:43;16.30;;;13.77;;
13349;SDS011;6744;53.190;6.576;2023-11-21T08:42:09;17.17;;;14.57;;
13349;SDS011;6744;53.190;6.576;2023-11-21T08:44:34;16.17;;;13.30;;
13349;SDS011;6744;53.190;6.576;2023-11-21T08:47:00;18.30;;;13.83;;
13349;SDS011;6744;53.190;6.576;2023-11-21T08:49:25;19.57;;;14.43;;
13349;SDS011;6744;53.190;6.576;2023-11-21T08:51:52;15.80;;;13.00;;
13349;SDS011;6744;53.190;6.576;2023-11-21T08:54:20;15.83;;;14.00;;
13349;SDS011;6744;53.190;6.576;2023-11-21T08:56:46;17.23;;;14.13;;
13349;SDS011;6744;53.190;6.576;2023-11-21T08:59:11;16.73;;;13.43;;
13349;SDS011;6744;53.190;6.576;2023-11-21T09:01:39;17.90;;;13.93;;
13349;SDS011;6744;53.190;6.576;2023-11-21T09:04:05;17.73;;;14.27;;
13349;SDS011;6744;53.190;6.576;2023-11-21T09:06:31;14.97;;;12.00;;
13349;SDS011;6744;53.190;6.576;2023-11-21T09:08:56;12.27;;;10.63;;
13349;SDS011;6744;53.190;6.576;2023-11-21T09:11:21;11.90;;;10.43;;
13349;SDS011;6744;53.190;6.576;2023-11-21T09:13:47;11.33;;;10.23;;
13349;SDS011;6744;53.190;6.576;2023-11-21T09:16:13;11.00;;;9.87;;
13349;SDS011;6744;53.190;6.576;2023-11-21T09:18:40;10.10;;;9.10;;
13349;SDS011;6744;53.190;6.576;2023-11-21T09:21:05;10.07;;;9.07;;
13349;SDS011;6744;53.190;6.576;2023-11-21T09:23:31;11.07;;;9.97;;
13349;SDS011;6744;53.190;6.576;2023-11-21T09:25:56;11.87;;;10.67;;
13349;SDS011;6744;53.190;6.576;2023-11-21T09:28:24;9.57;;;8.50;;
13349;SDS011;6744;53.190;6.576;2023-11-21T09:30:50;10.70;;;9.57;;
13349;SDS011;6744;53.190;6.576;2023-11-21T09:33:15;10.73;;;9.60;;
13349;SDS011;6744;53.190;6.576;2023-11-21T09:35:41;9.73;;;8.73;;
13349;SDS011;6744;53.190;6.576;2023-11-21T09:38:09;10.50;;;9.43;;
13349;SDS011;6744;53.190;6.576;2023-11-21T09:40:35;9.37;;;8.47;;
13349;SDS011;6744;53.190;6.576;2023-11-21T09:43:02;9.77;;;8.70;;
13349;SDS011;6744;53.190;6.576;2023-11-21T09:45:34;10.13;;;9.13;;
13349;SDS011;6744;53.190;6.576;2023-11-21T09:48:00;9.00;;;7.87;;
13349;SDS011;6744;53.190;6.576;2023-11-21T09:50:26;9.03;;;8.13;;
13349;SDS011;6744;53.190;6.576;2023-11-21T09:53:07;8.97;;;8.17;;
13349;SDS011;6744;53.190;6.576;2023-11-21T09:55:46;9.73;;;8.67;;
13349;SDS011;6744;53.190;6.576;2023-11-21T09:58:13;8.63;;;7.83;;
13349;SDS011;6744;53.190;6.576;2023-11-21T10:00:40;9.67;;;8.53;;
13349;SDS011;6744;53.190;6.576;2023-11-21T10:03:06;9.33;;;8.40;;
13349;SDS011;6744;53.190;6.576;2023-11-21T10:05:32;9.20;;;8.20;;
13349;SDS011;6744;53.190;6.576;2023-11-21T10:07:59;9.23;;;7.43;;
13349;SDS011;6744;53.190;6.576;2023-11-21T10:10:25;7.90;;;7.17;;
13349;SDS011;6744;53.190;6.576;2023-11-21T10:12:51;6.83;;;6.23;;
13349;SDS011;6744;53.190;6.576;2023-11-21T10:15:22;8.63;;;7.20;;
13349;SDS011;6744;53.190;6.576;2023-11-21T10:17:50;8.03;;;7.13;;
13349;SDS011;6744;53.190;6.576;2023-11-21T10:20:18;6.53;;;5.93;;
13349;SDS011;6744;53.190;6.576;2023-11-21T10:22:44;7.20;;;6.50;;
13349;SDS011;6744;53.190;6.576;2023-11-21T10:25:11;6.40;;;5.80;;
13349;SDS011;6744;53.190;6.576;2023-11-21T10:27:39;6.70;;;5.73;;
13349;SDS011;6744;53.190;6.576;2023-11-21T10:30:06;6.53;;;5.80;;
13349;SDS011;6744;53.190;6.576;2023-11-21T10:32:33;6.23;;;5.63;;
13349;SDS011;6744;53.190;6.576;2023-11-21T10:34:58;7.77;;;5.77;;
13349;SDS011;6744;53.190;6.576;2023-11-21T10:37:32;6.90;;;5.90;;
13349;SDS011;6744;53.190;6.576;2023-11-21T10:39:58;6.40;;;5.80;;
13349;SDS011;6744;53.190;6.576;2023-11-21T10:42:24;7.87;;;6.07;;
13349;SDS011;6744;53.190;6.576;2023-11-21T10:44:49;9.00;;;5.83;;
13349;SDS011;6744;53.190;6.576;2023-11-21T10:47:15;5.77;;;5.17;;
13349;SDS011;6744;53.190;6.576;2023-11-21T10:49:41;6.30;;;5.70;;
13349;SDS011;6744;53.190;6.576;2023-11-21T10:52:07;6.07;;;5.17;;
13349;SDS011;6744;53.190;6.576;2023-11-21T10:54:33;6.07;;;4.97;;
13349;SDS011;6744;53.190;6.576;2023-11-21T10:57:00;4.83;;;4.40;;
13349;SDS011;6744;53.190;6.576;2023-11-21T10:59:30;5.17;;;4.63;;
13349;SDS011;6744;53.190;6.576;2023-11-21T11:01:57;6.83;;;5.33;;
13349;SDS011;6744;53.190;6.576;2023-11-21T11:04:22;5.57;;;4.90;;
13349;SDS011;6744;53.190;6.576;2023-11-21T11:07:02;5.73;;;5.03;;
13349;SDS011;6744;53.190;6.576;2023-11-21T11:09:28;5.30;;;4.50;;
13349;SDS011;6744;53.190;6.576;2023-11-21T11:11:57;5.57;;;4.60;;
13349;SDS011;6744;53.190;6.576;2023-11-21T11:14:23;4.53;;;4.13;;
13349;SDS011;6744;53.190;6.576;2023-11-21T11:16:52;5.07;;;4.57;;
13349;SDS011;6744;53.190;6.576;2023-11-21T11:19:19;4.53;;;4.13;;
13349;SDS011;6744;53.190;6.576;2023-11-21T11:24:28;4.27;;;3.80;;
13349;SDS011;6744;53.190;6.576;2023-11-21T11:35:42;4.13;;;3.73;;
13349;SDS011;6744;53.190;6.576;2023-11-21T11:38:13;4.20;;;3.80;;
13349;SDS011;6744;53.190;6.576;2023-11-21T11:40:45;4.53;;;3.67;;
13349;SDS011;6744;53.190;6.576;2023-11-21T11:43:11;5.37;;;3.70;;
13349;SDS011;6744;53.190;6.576;2023-11-21T11:45:37;3.50;;;3.20;;
13349;SDS011;6744;53.190;6.576;2023-11-21T11:48:10;4.10;;;3.70;;
13349;SDS011;6744;53.190;6.576;2023-11-21T11:50:41;4.60;;;3.80;;
13349;SDS011;6744;53.190;6.576;2023-11-21T11:53:14;4.27;;;3.87;;
13349;SDS011;6744;53.190;6.576;2023-11-21T11:55:40;3.50;;;3.20;;
13349;SDS011;6744;53.190;6.576;2023-11-21T11:58:06;3.80;;;3.50;;
13349;SDS011;6744;53.190;6.576;2023-11-21T12:02:58;4.23;;;3.83;;
13349;SDS011;6744;53.190;6.576;2023-11-21T12:05:28;5.70;;;4.97;;
13349;SDS011;6744;53.190;6.576;2023-11-21T12:07:57;4.20;;;3.80;;
13349;SDS011;6744;53.190;6.576;2023-11-21T12:10:24;4.37;;;3.97;;
13349;SDS011;6744;53.190;6.576;2023-11-21T12:12:54;4.50;;;4.10;;
13349;SDS011;6744;53.190;6.576;2023-11-21T12:15:21;4.40;;;4.00;;
13349;SDS011;6744;53.190;6.576;2023-11-21T12:17:47;4.27;;;3.87;;
13349;SDS011;6744;53.190;6.576;2023-11-21T12:20:14;5.93;;;3.87;;
13349;SDS011;6744;53.190;6.576;2023-11-21T12:22:52;4.50;;;4.10;;
13349;SDS011;6744;53.190;6.576;2023-11-21T12:25:22;4.30;;;3.90;;
13349;SDS011;6744;53.190;6.576;2023-11-21T12:27:50;4.10;;;3.70;;
13349;SDS011;6744;53.190;6.576;2023-11-21T12:30:17;4.30;;;3.70;;
13349;SDS011;6744;53.190;6.576;2023-11-21T12:32:43;4.10;;;3.70;;
13349;SDS011;6744;53.190;6.576;2023-11-21T12:35:11;4.30;;;3.90;;
13349;SDS011;6744;53.190;6.576;2023-11-21T12:37:37;4.67;;;4.13;;
13349;SDS011;6744;53.190;6.576;2023-11-21T12:40:04;4.60;;;4.10;;
13349;SDS011;6744;53.190;6.576;2023-11-21T12:42:31;4.47;;;3.70;;
13349;SDS011;6744;53.190;6.576;2023-11-21T12:45:09;4.87;;;3.70;;
13349;SDS011;6744;53.190;6.576;2023-11-21T12:47:42;5.63;;;4.00;;
13349;SDS011;6744;53.190;6.576;2023-11-21T12:50:08;6.10;;;4.80;;
13349;SDS011;6744;53.190;6.576;2023-11-21T12:52:42;4.67;;;4.23;;
13349;SDS011;6744;53.190;6.576;2023-11-21T12:55:18;5.67;;;5.03;;
13349;SDS011;6744;53.190;6.576;2023-11-21T12:57:51;5.47;;;4.87;;
13349;SDS011;6744;53.190;6.576;2023-11-21T13:00:19;4.70;;;4.30;;
13349;SDS011;6744;53.190;6.576;2023-11-21T13:02:55;4.73;;;4.23;;
13349;SDS011;6744;53.190;6.576;2023-11-21T13:05:27;4.10;;;3.70;;
13349;SDS011;6744;53.190;6.576;2023-11-21T13:07:54;5.30;;;4.57;;
13349;SDS011;6744;53.190;6.576;2023-11-21T13:10:23;6.10;;;4.00;;
13349;SDS011;6744;53.190;6.576;2023-11-21T13:12:52;5.83;;;4.90;;
13349;SDS011;6744;53.190;6.576;2023-11-21T13:15:18;5.03;;;4.00;;
13349;SDS011;6744;53.190;6.576;2023-11-21T13:17:44;3.93;;;3.53;;
13349;SDS011;6744;53.190;6.576;2023-11-21T13:20:10;4.37;;;3.97;;
13349;SDS011;6744;53.190;6.576;2023-11-21T13:22:45;4.63;;;4.00;;
13349;SDS011;6744;53.190;6.576;2023-11-21T13:25:14;4.67;;;4.27;;
13349;SDS011;6744;53.190;6.576;2023-11-21T13:27:45;4.63;;;3.97;;
13349;SDS011;6744;53.190;6.576;2023-11-21T13:30:12;4.13;;;3.70;;
13349;SDS011;6744;53.190;6.576;2023-11-21T13:32:40;4.77;;;3.43;;
13349;SDS011;6744;53.190;6.576;2023-11-21T13:35:06;4.53;;;3.50;;
13349;SDS011;6744;53.190;6.576;2023-11-21T13:37:36;4.00;;;3.57;;
13349;SDS011;6744;53.190;6.576;2023-11-21T13:40:02;4.27;;;3.50;;
13349;SDS011;6744;53.190;6.576;2023-11-21T13:42:35;3.43;;;3.13;;
13349;SDS011;6744;53.190;6.576;2023-11-21T13:45:00;3.83;;;3.40;;
13349;SDS011;6744;53.190;6.576;2023-11-21T13:47:25;3.53;;;3.20;;
13349;SDS011;6744;53.190;6.576;2023-11-21T13:49:54;4.27;;;3.90;;
13349;SDS011;6744;53.190;6.576;2023-11-21T13:52:19;4.97;;;3.83;;
13349;SDS011;6744;53.190;6.576;2023-11-21T13:54:48;5.50;;;3.70;;
13349;SDS011;6744;53.190;6.576;2023-11-21T13:57:13;4.50;;;4.10;;
13349;SDS011;6744;53.190;6.576;2023-11-21T13:59:39;5.50;;;3.90;;
13349;SDS011;6744;53.190;6.576;2023-11-21T14:02:04;4.23;;;3.83;;
13349;SDS011;6744;53.190;6.576;2023-11-21T14:04:43;5.33;;;4.03;;
13349;SDS011;6744;53.190;6.576;2023-11-21T14:07:14;4.67;;;3.93;;
13349;SDS011;6744;53.190;6.576;2023-11-21T14:09:51;4.73;;;3.70;;
13349;SDS011;6744;53.190;6.576;2023-11-21T14:12:17;5.07;;;3.93;;
13349;SDS011;6744;53.190;6.576;2023-11-21T14:14:43;5.93;;;3.40;;
13349;SDS011;6744;53.190;6.576;2023-11-21T14:17:10;4.77;;;3.37;;
13349;SDS011;6744;53.190;6.576;2023-11-21T14:19:35;3.87;;;3.07;;
13349;SDS011;6744;53.190;6.576;2023-11-21T14:22:05;5.13;;;2.93;;
13349;SDS011;6744;53.190;6.576;2023-11-21T14:24:30;4.30;;;3.10;;
13349;SDS011;6744;53.190;6.576;2023-11-21T14:26:57;5.23;;;3.40;;
13349;SDS011;6744;53.190;6.576;2023-11-21T14:29:22;3.53;;;3.23;;
13349;SDS011;6744;53.190;6.576;2023-11-21T14:31:48;3.87;;;3.10;;
13349;SDS011;6744;53.190;6.576;2023-11-21T14:34:16;3.80;;;2.93;;
13349;SDS011;6744;53.190;6.576;2023-11-21T14:36:42;4.30;;;3.20;;
13349;SDS011;6744;53.190;6.576;2023-11-21T14:39:09;4.67;;;3.10;;
13349;SDS011;6744;53.190;6.576;2023-11-21T14:41:45;4.03;;;3.10;;
13349;SDS011;6744;53.190;6.576;2023-11-21T14:44:11;3.50;;;2.97;;
13349;SDS011;6744;53.190;6.576;2023-11-21T14:46:37;3.63;;;2.70;;
13349;SDS011;6744;53.190;6.576;2023-11-21T14:49:04;4.17;;;3.13;;
13349;SDS011;6744;53.190;6.576;2023-11-21T14:51:44;3.43;;;2.80;;
13349;SDS011;6744;53.190;6.576;2023-11-21T14:54:25;3.37;;;2.77;;
13349;SDS011;6744;53.190;6.576;2023-11-21T14:57:05;3.93;;;2.80;;
13349;SDS011;6744;53.190;6.576;2023-11-21T14:59:37;5.40;;;3.17;;
13349;SDS011;6744;53.190;6.576;2023-11-21T15:02:07;4.47;;;2.83;;